sensor_id;sensor_type;location;lat;lon;timestamp;temperature;humidity
6206;DHT22;3136;48.788;9.772;2023-09-30T00:02:12;13.30;1.00
6206;DHT22;3136;48.788;9.772;2023-09-30T00:04:38;13.40;1.00
6206;DHT22;3136;48.788;9.772;2023-09-30T00:07:04;13.50;1.00
6206;DHT22;3136;48.788;9.772;2023-09-30T00:09:30;13.50;1.00
6206;DHT22;3136;48.788;9.772;2023-09-30T00:11:56;13.60;1.00
6206;DHT22;3136;48.788;9.772;2023-09-30T00:14:21;13.70;1.00
6206;DHT22;3136;48.788;9.772;2023-09-30T00:16:47;13.80;1.00
6206;DHT22;3136;48.788;9.772;2023-09-30T00:19:12;13.80;1.00
6206;DHT22;3136;48.788;9.772;2023-09-30T00:21:39;13.80;1.00
6206;DHT22;3136;48.788;9.772;2023-09-30T00:24:05;13.90;1.00
6206;DHT22;3136;48.788;9.772;2023-09-30T00:26:31;13.90;1.00
6206;DHT22;3136;48.788;9.772;2023-09-30T00:28:56;13.90;1.00
6206;DHT22;3136;48.788;9.772;2023-09-30T00:31:22;13.90;1.00
6206;DHT22;3136;48.788;9.772;2023-09-30T00:33:47;13.80;1.00
6206;DHT22;3136;48.788;9.772;2023-09-30T00:36:13;13.80;1.00
6206;DHT22;3136;48.788;9.772;2023-09-30T00:38:39;14.00;1.00
6206;DHT22;3136;48.788;9.772;2023-09-30T00:41:06;13.90;1.00
6206;DHT22;3136;48.788;9.772;2023-09-30T00:43:32;13.90;1.00
6206;DHT22;3136;48.788;9.772;2023-09-30T00:46:04;13.80;1.00
6206;DHT22;3136;48.788;9.772;2023-09-30T00:48:33;13.70;1.00
6206;DHT22;3136;48.788;9.772;2023-09-30T00:50:59;13.70;1.00
6206;DHT22;3136;48.788;9.772;2023-09-30T00:53:25;13.70;1.00
6206;DHT22;3136;48.788;9.772;2023-09-30T00:55:51;13.70;1.00
6206;DHT22;3136;48.788;9.772;2023-09-30T00:58:17;13.70;1.00
6206;DHT22;3136;48.788;9.772;2023-09-30T01:00:43;13.60;1.00
6206;DHT22;3136;48.788;9.772;2023-09-30T01:03:09;13.60;1.00
6206;DHT22;3136;48.788;9.772;2023-09-30T01:05:36;13.60;1.00
6206;DHT22;3136;48.788;9.772;2023-09-30T01:08:02;13.50;1.00
6206;DHT22;3136;48.788;9.772;2023-09-30T01:10:28;13.50;1.00
6206;DHT22;3136;48.788;9.772;2023-09-30T01:12:54;13.40;1.00
6206;DHT22;3136;48.788;9.772;2023-09-30T01:15:19;13.40;1.00
6206;DHT22;3136;48.788;9.772;2023-09-30T01:17:45;13.40;1.00
6206;DHT22;3136;48.788;9.772;2023-09-30T01:20:12;13.30;1.00
6206;DHT22;3136;48.788;9.772;2023-09-30T01:22:41;13.30;8.10
6206;DHT22;3136;48.788;9.772;2023-09-30T01:25:10;13.30;21.30
6206;DHT22;3136;48.788;9.772;2023-09-30T01:27:36;13.40;45.90
6206;DHT22;3136;48.788;9.772;2023-09-30T01:30:02;13.20;83.80
6206;DHT22;3136;48.788;9.772;2023-09-30T01:32:28;13.20;99.90
6206;DHT22;3136;48.788;9.772;2023-09-30T01:34:53;13.10;99.90
6206;DHT22;3136;48.788;9.772;2023-09-30T01:37:19;13.10;99.90
6206;DHT22;3136;48.788;9.772;2023-09-30T01:39:44;13.10;99.90
6206;DHT22;3136;48.788;9.772;2023-09-30T01:42:11;13.10;99.90
6206;DHT22;3136;48.788;9.772;2023-09-30T01:44:36;13.10;99.90
6206;DHT22;3136;48.788;9.772;2023-09-30T01:47:02;13.20;99.90
6206;DHT22;3136;48.788;9.772;2023-09-30T01:49:27;13.30;99.90
6206;DHT22;3136;48.788;9.772;2023-09-30T01:51:53;13.30;99.90
6206;DHT22;3136;48.788;9.772;2023-09-30T01:54:18;13.40;99.90
6206;DHT22;3136;48.788;9.772;2023-09-30T01:56:44;13.50;99.90
6206;DHT22;3136;48.788;9.772;2023-09-30T01:59:10;13.60;99.90
6206;DHT22;3136;48.788;9.772;2023-09-30T02:01:35;13.60;99.90
6206;DHT22;3136;48.788;9.772;2023-09-30T02:04:01;13.60;1.00
6206;DHT22;3136;48.788;9.772;2023-09-30T02:06:26;13.70;1.00
6206;DHT22;3136;48.788;9.772;2023-09-30T02:08:52;13.80;1.00
6206;DHT22;3136;48.788;9.772;2023-09-30T02:11:17;13.80;1.00
6206;DHT22;3136;48.788;9.772;2023-09-30T02:13:43;14.20;1.00
6206;DHT22;3136;48.788;9.772;2023-09-30T02:16:13;14.10;99.90
6206;DHT22;3136;48.788;9.772;2023-09-30T02:18:39;13.90;99.90
6206;DHT22;3136;48.788;9.772;2023-09-30T02:21:07;14.00;99.90
6206;DHT22;3136;48.788;9.772;2023-09-30T02:23:34;14.00;99.90
6206;DHT22;3136;48.788;9.772;2023-09-30T02:26:00;14.00;99.90
6206;DHT22;3136;48.788;9.772;2023-09-30T02:28:25;14.00;99.90
6206;DHT22;3136;48.788;9.772;2023-09-30T02:30:51;14.00;99.90
6206;DHT22;3136;48.788;9.772;2023-09-30T02:33:17;14.10;99.90
6206;DHT22;3136;48.788;9.772;2023-09-30T02:35:44;14.10;99.90
6206;DHT22;3136;48.788;9.772;2023-09-30T02:38:11;14.20;99.90
6206;DHT22;3136;48.788;9.772;2023-09-30T02:40:36;14.20;99.90
6206;DHT22;3136;48.788;9.772;2023-09-30T02:43:03;14.20;99.90
6206;DHT22;3136;48.788;9.772;2023-09-30T02:45:29;14.40;99.90
6206;DHT22;3136;48.788;9.772;2023-09-30T02:47:55;14.30;99.90
6206;DHT22;3136;48.788;9.772;2023-09-30T02:50:20;14.40;99.90
6206;DHT22;3136;48.788;9.772;2023-09-30T02:52:46;14.40;99.90
6206;DHT22;3136;48.788;9.772;2023-09-30T02:55:12;14.40;99.90
6206;DHT22;3136;48.788;9.772;2023-09-30T02:57:39;14.40;99.90
6206;DHT22;3136;48.788;9.772;2023-09-30T03:00:05;14.40;99.90
6206;DHT22;3136;48.788;9.772;2023-09-30T03:02:50;14.40;99.90
6206;DHT22;3136;48.788;9.772;2023-09-30T03:05:17;14.50;99.90
6206;DHT22;3136;48.788;9.772;2023-09-30T03:07:43;14.60;99.90
6206;DHT22;3136;48.788;9.772;2023-09-30T03:10:09;14.60;99.90
6206;DHT22;3136;48.788;9.772;2023-09-30T03:12:35;14.70;51.00
6206;DHT22;3136;48.788;9.772;2023-09-30T03:15:01;14.70;1.00
6206;DHT22;3136;48.788;9.772;2023-09-30T03:17:30;14.70;1.00
6206;DHT22;3136;48.788;9.772;2023-09-30T03:19:56;14.90;1.00
6206;DHT22;3136;48.788;9.772;2023-09-30T03:22:22;14.90;1.00
6206;DHT22;3136;48.788;9.772;2023-09-30T03:24:48;14.90;1.00
6206;DHT22;3136;48.788;9.772;2023-09-30T03:27:14;14.90;99.90
6206;DHT22;3136;48.788;9.772;2023-09-30T03:29:41;15.00;99.90
6206;DHT22;3136;48.788;9.772;2023-09-30T03:32:06;15.00;99.90
6206;DHT22;3136;48.788;9.772;2023-09-30T03:34:35;15.00;99.90
6206;DHT22;3136;48.788;9.772;2023-09-30T03:37:03;15.00;99.90
6206;DHT22;3136;48.788;9.772;2023-09-30T03:39:32;15.00;99.90
6206;DHT22;3136;48.788;9.772;2023-09-30T03:41:57;15.10;21.70
6206;DHT22;3136;48.788;9.772;2023-09-30T03:44:24;15.10;1.00
6206;DHT22;3136;48.788;9.772;2023-09-30T03:46:51;15.10;1.00
6206;DHT22;3136;48.788;9.772;2023-09-30T03:49:18;15.10;1.00
6206;DHT22;3136;48.788;9.772;2023-09-30T03:51:45;15.30;1.00
6206;DHT22;3136;48.788;9.772;2023-09-30T03:54:11;15.10;1.00
6206;DHT22;3136;48.788;9.772;2023-09-30T03:56:36;15.10;1.00
6206;DHT22;3136;48.788;9.772;2023-09-30T03:59:04;15.10;1.00
6206;DHT22;3136;48.788;9.772;2023-09-30T04:01:30;15.20;1.00
6206;DHT22;3136;48.788;9.772;2023-09-30T04:03:56;15.10;1.00
6206;DHT22;3136;48.788;9.772;2023-09-30T04:06:22;15.10;1.00
6206;DHT22;3136;48.788;9.772;2023-09-30T04:08:48;15.10;1.00
6206;DHT22;3136;48.788;9.772;2023-09-30T04:11:13;15.10;1.00
6206;DHT22;3136;48.788;9.772;2023-09-30T04:13:44;15.10;30.00
6206;DHT22;3136;48.788;9.772;2023-09-30T04:16:10;15.10;78.20
6206;DHT22;3136;48.788;9.772;2023-09-30T04:18:35;15.10;98.30
6206;DHT22;3136;48.788;9.772;2023-09-30T04:21:02;15.10;92.50
6206;DHT22;3136;48.788;9.772;2023-09-30T04:23:27;15.10;52.30
6206;DHT22;3136;48.788;9.772;2023-09-30T04:25:53;15.00;11.40
6206;DHT22;3136;48.788;9.772;2023-09-30T04:28:19;15.20;13.70
6206;DHT22;3136;48.788;9.772;2023-09-30T04:30:49;15.10;26.20
6206;DHT22;3136;48.788;9.772;2023-09-30T04:33:15;15.00;1.00
6206;DHT22;3136;48.788;9.772;2023-09-30T04:35:43;15.00;8.00
6206;DHT22;3136;48.788;9.772;2023-09-30T04:38:09;15.00;70.20
6206;DHT22;3136;48.788;9.772;2023-09-30T04:40:34;15.00;99.90
6206;DHT22;3136;48.788;9.772;2023-09-30T04:43:00;14.90;99.90
6206;DHT22;3136;48.788;9.772;2023-09-30T04:45:26;15.00;99.90
6206;DHT22;3136;48.788;9.772;2023-09-30T04:47:53;15.10;99.90
6206;DHT22;3136;48.788;9.772;2023-09-30T04:50:18;15.00;99.90
6206;DHT22;3136;48.788;9.772;2023-09-30T04:52:47;15.00;99.90
6206;DHT22;3136;48.788;9.772;2023-09-30T04:55:13;14.90;99.90
6206;DHT22;3136;48.788;9.772;2023-09-30T04:57:45;14.90;99.90
6206;DHT22;3136;48.788;9.772;2023-09-30T05:00:19;14.90;99.90
6206;DHT22;3136;48.788;9.772;2023-09-30T05:02:50;14.90;99.90
6206;DHT22;3136;48.788;9.772;2023-09-30T05:05:16;14.80;99.90
6206;DHT22;3136;48.788;9.772;2023-09-30T05:07:41;14.70;99.90
6206;DHT22;3136;48.788;9.772;2023-09-30T05:10:07;14.70;99.90
6206;DHT22;3136;48.788;9.772;2023-09-30T05:12:36;14.70;99.90
6206;DHT22;3136;48.788;9.772;2023-09-30T05:15:02;14.70;99.90
6206;DHT22;3136;48.788;9.772;2023-09-30T05:17:28;14.70;1.00
6206;DHT22;3136;48.788;9.772;2023-09-30T05:19:56;14.70;1.00
6206;DHT22;3136;48.788;9.772;2023-09-30T05:22:22;14.60;1.00
6206;DHT22;3136;48.788;9.772;2023-09-30T05:24:52;14.60;1.00
6206;DHT22;3136;48.788;9.772;2023-09-30T05:27:19;14.60;1.00
6206;DHT22;3136;48.788;9.772;2023-09-30T05:29:44;14.60;1.00
6206;DHT22;3136;48.788;9.772;2023-09-30T05:32:10;14.70;1.00
6206;DHT22;3136;48.788;9.772;2023-09-30T05:34:36;14.70;1.00
6206;DHT22;3136;48.788;9.772;2023-09-30T05:37:02;14.70;1.00
6206;DHT22;3136;48.788;9.772;2023-09-30T05:39:28;14.70;1.00
6206;DHT22;3136;48.788;9.772;2023-09-30T05:41:54;14.70;1.00
6206;DHT22;3136;48.788;9.772;2023-09-30T05:44:20;14.60;1.00
6206;DHT22;3136;48.788;9.772;2023-09-30T05:46:47;14.60;1.00
6206;DHT22;3136;48.788;9.772;2023-09-30T05:49:13;14.60;1.00
6206;DHT22;3136;48.788;9.772;2023-09-30T05:51:42;14.70;1.00
6206;DHT22;3136;48.788;9.772;2023-09-30T05:54:07;14.70;1.00
6206;DHT22;3136;48.788;9.772;2023-09-30T05:56:37;14.70;1.00
6206;DHT22;3136;48.788;9.772;2023-09-30T05:59:04;14.80;1.00
6206;DHT22;3136;48.788;9.772;2023-09-30T06:01:31;14.80;1.00
6206;DHT22;3136;48.788;9.772;2023-09-30T06:03:58;14.80;1.00
6206;DHT22;3136;48.788;9.772;2023-09-30T06:06:24;14.80;1.00
6206;DHT22;3136;48.788;9.772;2023-09-30T06:08:51;14.80;1.00
6206;DHT22;3136;48.788;9.772;2023-09-30T06:11:21;14.90;1.00
6206;DHT22;3136;48.788;9.772;2023-09-30T06:13:53;14.90;1.00
6206;DHT22;3136;48.788;9.772;2023-09-30T06:16:19;14.90;1.00
6206;DHT22;3136;48.788;9.772;2023-09-30T06:18:45;15.00;1.00
6206;DHT22;3136;48.788;9.772;2023-09-30T06:21:11;15.00;99.90
6206;DHT22;3136;48.788;9.772;2023-09-30T06:23:37;15.10;99.90
6206;DHT22;3136;48.788;9.772;2023-09-30T06:26:02;15.10;99.90
6206;DHT22;3136;48.788;9.772;2023-09-30T06:28:28;15.10;99.90
6206;DHT22;3136;48.788;9.772;2023-09-30T06:30:56;15.10;99.90
6206;DHT22;3136;48.788;9.772;2023-09-30T06:33:21;15.20;12.20
6206;DHT22;3136;48.788;9.772;2023-09-30T06:35:47;15.20;27.50
6206;DHT22;3136;48.788;9.772;2023-09-30T06:38:23;15.30;1.00
6206;DHT22;3136;48.788;9.772;2023-09-30T06:40:49;15.40;99.90
6206;DHT22;3136;48.788;9.772;2023-09-30T06:43:15;15.30;9.40
6206;DHT22;3136;48.788;9.772;2023-09-30T06:45:44;15.30;1.00
6206;DHT22;3136;48.788;9.772;2023-09-30T06:48:10;15.20;99.90
6206;DHT22;3136;48.788;9.772;2023-09-30T06:50:46;15.20;99.90
6206;DHT22;3136;48.788;9.772;2023-09-30T06:53:17;15.10;1.00
6206;DHT22;3136;48.788;9.772;2023-09-30T06:55:43;15.10;1.00
6206;DHT22;3136;48.788;9.772;2023-09-30T06:58:09;15.20;33.00
6206;DHT22;3136;48.788;9.772;2023-09-30T07:00:37;15.30;99.90
6206;DHT22;3136;48.788;9.772;2023-09-30T07:03:02;15.40;87.20
6206;DHT22;3136;48.788;9.772;2023-09-30T07:05:29;15.50;99.90
6206;DHT22;3136;48.788;9.772;2023-09-30T07:07:55;15.70;99.90
6206;DHT22;3136;48.788;9.772;2023-09-30T07:10:21;15.70;1.00
6206;DHT22;3136;48.788;9.772;2023-09-30T07:12:46;15.70;1.00
6206;DHT22;3136;48.788;9.772;2023-09-30T07:15:12;15.70;99.90
6206;DHT22;3136;48.788;9.772;2023-09-30T07:17:39;15.70;37.20
6206;DHT22;3136;48.788;9.772;2023-09-30T07:20:07;15.70;99.90
6206;DHT22;3136;48.788;9.772;2023-09-30T07:22:33;15.90;1.00
6206;DHT22;3136;48.788;9.772;2023-09-30T07:24:59;16.00;1.00
6206;DHT22;3136;48.788;9.772;2023-09-30T07:27:25;16.00;99.90
6206;DHT22;3136;48.788;9.772;2023-09-30T07:29:51;16.20;99.90
6206;DHT22;3136;48.788;9.772;2023-09-30T07:32:16;16.20;99.90
6206;DHT22;3136;48.788;9.772;2023-09-30T07:34:42;16.30;99.90
6206;DHT22;3136;48.788;9.772;2023-09-30T07:37:08;16.50;1.00
6206;DHT22;3136;48.788;9.772;2023-09-30T07:39:35;16.80;99.90
6206;DHT22;3136;48.788;9.772;2023-09-30T07:42:01;16.40;3.10
6206;DHT22;3136;48.788;9.772;2023-09-30T07:44:27;16.40;1.00
6206;DHT22;3136;48.788;9.772;2023-09-30T07:46:52;16.50;1.00
6206;DHT22;3136;48.788;9.772;2023-09-30T07:49:19;16.60;1.00
6206;DHT22;3136;48.788;9.772;2023-09-30T07:51:44;16.60;1.00
6206;DHT22;3136;48.788;9.772;2023-09-30T07:54:11;16.60;1.00
6206;DHT22;3136;48.788;9.772;2023-09-30T07:56:37;16.50;99.90
6206;DHT22;3136;48.788;9.772;2023-09-30T07:59:03;16.50;1.00
6206;DHT22;3136;48.788;9.772;2023-09-30T08:01:30;16.60;99.90
6206;DHT22;3136;48.788;9.772;2023-09-30T08:03:56;16.80;99.90
6206;DHT22;3136;48.788;9.772;2023-09-30T08:06:22;16.90;75.50
6206;DHT22;3136;48.788;9.772;2023-09-30T08:08:48;17.00;99.90
6206;DHT22;3136;48.788;9.772;2023-09-30T08:11:13;17.10;99.90
6206;DHT22;3136;48.788;9.772;2023-09-30T08:13:39;17.20;1.00
6206;DHT22;3136;48.788;9.772;2023-09-30T08:16:05;17.30;99.90
6206;DHT22;3136;48.788;9.772;2023-09-30T08:18:30;17.40;1.00
6206;DHT22;3136;48.788;9.772;2023-09-30T08:20:57;17.40;99.90
6206;DHT22;3136;48.788;9.772;2023-09-30T08:23:23;17.60;1.00
6206;DHT22;3136;48.788;9.772;2023-09-30T08:25:48;17.70;1.00
6206;DHT22;3136;48.788;9.772;2023-09-30T08:28:14;18.10;99.90
6206;DHT22;3136;48.788;9.772;2023-09-30T08:30:40;17.90;35.20
6206;DHT22;3136;48.788;9.772;2023-09-30T08:33:05;18.10;11.20
6206;DHT22;3136;48.788;9.772;2023-09-30T08:35:36;18.20;65.50
6206;DHT22;3136;48.788;9.772;2023-09-30T08:38:03;18.30;1.00
6206;DHT22;3136;48.788;9.772;2023-09-30T08:40:29;18.40;1.00
6206;DHT22;3136;48.788;9.772;2023-09-30T08:42:54;18.60;1.00
6206;DHT22;3136;48.788;9.772;2023-09-30T08:45:20;18.60;1.00
6206;DHT22;3136;48.788;9.772;2023-09-30T08:47:46;18.70;1.00
6206;DHT22;3136;48.788;9.772;2023-09-30T08:50:12;18.70;99.90
6206;DHT22;3136;48.788;9.772;2023-09-30T08:52:40;18.70;99.90
6206;DHT22;3136;48.788;9.772;2023-09-30T08:55:10;18.80;99.90
6206;DHT22;3136;48.788;9.772;2023-09-30T08:57:43;18.70;99.90
6206;DHT22;3136;48.788;9.772;2023-09-30T09:00:10;18.70;99.90
6206;DHT22;3136;48.788;9.772;2023-09-30T09:02:40;18.70;99.90
6206;DHT22;3136;48.788;9.772;2023-09-30T09:05:06;18.80;99.90
6206;DHT22;3136;48.788;9.772;2023-09-30T09:07:32;18.60;99.90
6206;DHT22;3136;48.788;9.772;2023-09-30T09:10:08;18.70;99.90
6206;DHT22;3136;48.788;9.772;2023-09-30T09:12:37;18.50;99.90
6206;DHT22;3136;48.788;9.772;2023-09-30T09:15:05;18.40;99.90
6206;DHT22;3136;48.788;9.772;2023-09-30T09:17:44;18.40;99.90
6206;DHT22;3136;48.788;9.772;2023-09-30T09:20:11;18.40;1.00
6206;DHT22;3136;48.788;9.772;2023-09-30T09:22:43;18.40;99.90
6206;DHT22;3136;48.788;9.772;2023-09-30T09:25:10;18.50;1.00
6206;DHT22;3136;48.788;9.772;2023-09-30T09:27:36;18.70;99.90
6206;DHT22;3136;48.788;9.772;2023-09-30T09:30:19;18.60;99.90
6206;DHT22;3136;48.788;9.772;2023-09-30T09:35:22;19.10;99.90
6206;DHT22;3136;48.788;9.772;2023-09-30T09:42:59;19.50;99.90
6206;DHT22;3136;48.788;9.772;2023-09-30T09:45:28;19.50;99.90
6206;DHT22;3136;48.788;9.772;2023-09-30T09:47:54;19.30;99.90
6206;DHT22;3136;48.788;9.772;2023-09-30T09:50:22;19.30;99.90
6206;DHT22;3136;48.788;9.772;2023-09-30T09:52:49;19.30;99.90
6206;DHT22;3136;48.788;9.772;2023-09-30T09:55:23;19.30;99.90
6206;DHT22;3136;48.788;9.772;2023-09-30T09:57:49;19.50;99.90
6206;DHT22;3136;48.788;9.772;2023-09-30T10:00:24;19.60;99.90
6206;DHT22;3136;48.788;9.772;2023-09-30T10:02:51;19.90;66.80
6206;DHT22;3136;48.788;9.772;2023-09-30T10:05:18;20.20;62.90
6206;DHT22;3136;48.788;9.772;2023-09-30T10:07:57;20.40;33.80
6206;DHT22;3136;48.788;9.772;2023-09-30T10:10:25;20.70;42.50
6206;DHT22;3136;48.788;9.772;2023-09-30T10:12:51;21.00;19.20
6206;DHT22;3136;48.788;9.772;2023-09-30T10:20:37;21.80;2.10
6206;DHT22;3136;48.788;9.772;2023-09-30T10:25:48;22.70;1.50
6206;DHT22;3136;48.788;9.772;2023-09-30T10:28:44;23.80;1.60
6206;DHT22;3136;48.788;9.772;2023-09-30T10:36:35;25.30;1.00
6206;DHT22;3136;48.788;9.772;2023-09-30T10:39:03;25.80;1.00
6206;DHT22;3136;48.788;9.772;2023-09-30T10:47:39;24.40;1.00
6206;DHT22;3136;48.788;9.772;2023-09-30T10:49:40;24.30;1.00
6206;DHT22;3136;48.788;9.772;2023-09-30T10:52:06;25.00;1.00
6206;DHT22;3136;48.788;9.772;2023-09-30T10:54:32;25.40;1.00
6206;DHT22;3136;48.788;9.772;2023-09-30T10:56:59;26.20;1.00
6206;DHT22;3136;48.788;9.772;2023-09-30T10:59:27;26.90;1.00
6206;DHT22;3136;48.788;9.772;2023-09-30T11:01:53;27.50;1.00
6206;DHT22;3136;48.788;9.772;2023-09-30T11:04:19;28.00;1.00
6206;DHT22;3136;48.788;9.772;2023-09-30T11:06:46;28.00;1.00
6206;DHT22;3136;48.788;9.772;2023-09-30T11:09:21;27.30;1.00
6206;DHT22;3136;48.788;9.772;2023-09-30T11:11:48;26.20;1.00
6206;DHT22;3136;48.788;9.772;2023-09-30T11:16:56;25.90;1.00
6206;DHT22;3136;48.788;9.772;2023-09-30T11:19:22;26.30;1.00
6206;DHT22;3136;48.788;9.772;2023-09-30T11:21:53;26.30;1.00
6206;DHT22;3136;48.788;9.772;2023-09-30T11:24:21;26.40;1.00
6206;DHT22;3136;48.788;9.772;2023-09-30T11:26:46;26.70;1.00
6206;DHT22;3136;48.788;9.772;2023-09-30T11:29:14;26.70;1.00
6206;DHT22;3136;48.788;9.772;2023-09-30T11:31:45;26.20;1.00
6206;DHT22;3136;48.788;9.772;2023-09-30T11:34:12;25.30;1.00
6206;DHT22;3136;48.788;9.772;2023-09-30T11:36:39;24.40;1.00
6206;DHT22;3136;48.788;9.772;2023-09-30T11:39:07;24.50;1.00
6206;DHT22;3136;48.788;9.772;2023-09-30T11:41:36;25.60;1.00
6206;DHT22;3136;48.788;9.772;2023-09-30T11:44:09;26.90;1.00
6206;DHT22;3136;48.788;9.772;2023-09-30T11:47:01;27.70;1.00
6206;DHT22;3136;48.788;9.772;2023-09-30T11:49:39;27.50;1.00
6206;DHT22;3136;48.788;9.772;2023-09-30T11:52:26;26.40;1.00
6206;DHT22;3136;48.788;9.772;2023-09-30T11:54:52;24.80;1.00
6206;DHT22;3136;48.788;9.772;2023-09-30T11:57:19;24.20;1.00
6206;DHT22;3136;48.788;9.772;2023-09-30T11:59:45;23.50;1.00
6206;DHT22;3136;48.788;9.772;2023-09-30T12:02:12;23.10;1.00
6206;DHT22;3136;48.788;9.772;2023-09-30T12:04:38;22.60;1.00
6206;DHT22;3136;48.788;9.772;2023-09-30T12:07:04;22.20;1.00
6206;DHT22;3136;48.788;9.772;2023-09-30T12:09:32;21.90;1.00
6206;DHT22;3136;48.788;9.772;2023-09-30T12:11:57;21.70;1.00
6206;DHT22;3136;48.788;9.772;2023-09-30T12:14:24;21.40;1.00
6206;DHT22;3136;48.788;9.772;2023-09-30T12:16:50;21.30;1.00
6206;DHT22;3136;48.788;9.772;2023-09-30T12:19:16;21.10;1.00
6206;DHT22;3136;48.788;9.772;2023-09-30T12:21:44;22.80;1.00
6206;DHT22;3136;48.788;9.772;2023-09-30T12:24:12;21.80;1.00
6206;DHT22;3136;48.788;9.772;2023-09-30T12:26:45;22.70;1.00
6206;DHT22;3136;48.788;9.772;2023-09-30T12:29:20;22.70;1.00
6206;DHT22;3136;48.788;9.772;2023-09-30T12:31:48;22.40;1.00
6206;DHT22;3136;48.788;9.772;2023-09-30T12:34:15;22.00;1.00
6206;DHT22;3136;48.788;9.772;2023-09-30T12:36:41;22.00;1.00
6206;DHT22;3136;48.788;9.772;2023-09-30T12:39:07;21.80;1.00
6206;DHT22;3136;48.788;9.772;2023-09-30T12:41:43;21.90;1.00
6206;DHT22;3136;48.788;9.772;2023-09-30T12:44:10;22.80;1.00
6206;DHT22;3136;48.788;9.772;2023-09-30T12:46:36;23.30;1.00
6206;DHT22;3136;48.788;9.772;2023-09-30T12:49:06;23.30;1.00
6206;DHT22;3136;48.788;9.772;2023-09-30T12:51:32;22.90;1.00
6206;DHT22;3136;48.788;9.772;2023-09-30T12:53:58;23.30;1.00
6206;DHT22;3136;48.788;9.772;2023-09-30T12:56:24;24.70;1.00
6206;DHT22;3136;48.788;9.772;2023-09-30T12:58:50;26.10;1.00
6206;DHT22;3136;48.788;9.772;2023-09-30T13:01:16;27.30;1.00
6206;DHT22;3136;48.788;9.772;2023-09-30T13:03:46;28.20;1.00
6206;DHT22;3136;48.788;9.772;2023-09-30T13:06:11;29.30;1.00
6206;DHT22;3136;48.788;9.772;2023-09-30T13:08:37;29.70;1.00
6206;DHT22;3136;48.788;9.772;2023-09-30T13:11:03;29.60;1.00
6206;DHT22;3136;48.788;9.772;2023-09-30T13:13:30;29.40;1.00
6206;DHT22;3136;48.788;9.772;2023-09-30T13:15:57;29.60;1.00
6206;DHT22;3136;48.788;9.772;2023-09-30T13:18:23;29.60;1.00
6206;DHT22;3136;48.788;9.772;2023-09-30T13:20:48;29.30;1.00
6206;DHT22;3136;48.788;9.772;2023-09-30T13:23:14;29.30;1.00
6206;DHT22;3136;48.788;9.772;2023-09-30T13:25:39;29.70;1.00
6206;DHT22;3136;48.788;9.772;2023-09-30T13:28:05;29.70;1.00
6206;DHT22;3136;48.788;9.772;2023-09-30T13:30:31;29.30;1.00
6206;DHT22;3136;48.788;9.772;2023-09-30T13:32:57;28.70;1.00
6206;DHT22;3136;48.788;9.772;2023-09-30T13:35:23;28.60;1.00
6206;DHT22;3136;48.788;9.772;2023-09-30T13:37:48;29.00;1.00
6206;DHT22;3136;48.788;9.772;2023-09-30T13:40:14;29.20;1.00
6206;DHT22;3136;48.788;9.772;2023-09-30T13:42:40;29.20;1.00
6206;DHT22;3136;48.788;9.772;2023-09-30T13:45:06;28.60;1.00
6206;DHT22;3136;48.788;9.772;2023-09-30T13:47:32;28.30;1.00
6206;DHT22;3136;48.788;9.772;2023-09-30T13:49:58;27.60;1.00
6206;DHT22;3136;48.788;9.772;2023-09-30T13:52:23;26.50;1.00
6206;DHT22;3136;48.788;9.772;2023-09-30T13:54:49;25.90;1.00
6206;DHT22;3136;48.788;9.772;2023-09-30T13:57:14;25.80;1.00
6206;DHT22;3136;48.788;9.772;2023-09-30T13:59:40;25.80;1.00
6206;DHT22;3136;48.788;9.772;2023-09-30T14:02:07;25.60;1.00
6206;DHT22;3136;48.788;9.772;2023-09-30T14:04:33;25.30;1.00
6206;DHT22;3136;48.788;9.772;2023-09-30T14:07:01;25.30;1.00
6206;DHT22;3136;48.788;9.772;2023-09-30T14:09:28;25.60;1.00
6206;DHT22;3136;48.788;9.772;2023-09-30T14:11:54;25.50;1.00
6206;DHT22;3136;48.788;9.772;2023-09-30T14:14:19;25.40;1.00
6206;DHT22;3136;48.788;9.772;2023-09-30T14:16:45;24.90;1.00
6206;DHT22;3136;48.788;9.772;2023-09-30T14:19:12;24.40;1.00
6206;DHT22;3136;48.788;9.772;2023-09-30T14:21:39;24.00;1.00
6206;DHT22;3136;48.788;9.772;2023-09-30T14:24:05;23.50;1.00
6206;DHT22;3136;48.788;9.772;2023-09-30T14:26:32;23.30;1.00
6206;DHT22;3136;48.788;9.772;2023-09-30T14:28:57;22.90;1.00
6206;DHT22;3136;48.788;9.772;2023-09-30T14:31:23;22.80;1.00
6206;DHT22;3136;48.788;9.772;2023-09-30T14:33:48;22.70;1.00
6206;DHT22;3136;48.788;9.772;2023-09-30T14:36:16;22.60;1.00
6206;DHT22;3136;48.788;9.772;2023-09-30T14:38:43;22.60;1.00
6206;DHT22;3136;48.788;9.772;2023-09-30T14:41:10;22.50;1.00
6206;DHT22;3136;48.788;9.772;2023-09-30T14:43:40;22.50;1.00
6206;DHT22;3136;48.788;9.772;2023-09-30T14:46:06;22.40;1.00
6206;DHT22;3136;48.788;9.772;2023-09-30T14:48:31;22.20;1.00
6206;DHT22;3136;48.788;9.772;2023-09-30T14:50:57;22.10;1.00
6206;DHT22;3136;48.788;9.772;2023-09-30T14:53:23;21.90;1.00
6206;DHT22;3136;48.788;9.772;2023-09-30T14:55:50;22.00;1.00
6206;DHT22;3136;48.788;9.772;2023-09-30T14:58:15;22.00;1.00
6206;DHT22;3136;48.788;9.772;2023-09-30T15:00:41;21.60;1.00
6206;DHT22;3136;48.788;9.772;2023-09-30T15:03:07;21.30;1.00
6206;DHT22;3136;48.788;9.772;2023-09-30T15:05:33;21.10;1.00
6206;DHT22;3136;48.788;9.772;2023-09-30T15:07:59;20.80;1.00
6206;DHT22;3136;48.788;9.772;2023-09-30T15:10:27;20.60;1.00
6206;DHT22;3136;48.788;9.772;2023-09-30T15:12:53;20.50;1.00
6206;DHT22;3136;48.788;9.772;2023-09-30T15:15:19;20.50;1.00
6206;DHT22;3136;48.788;9.772;2023-09-30T15:17:44;20.60;1.00
6206;DHT22;3136;48.788;9.772;2023-09-30T15:20:10;20.60;1.00
6206;DHT22;3136;48.788;9.772;2023-09-30T15:22:36;20.60;1.00
6206;DHT22;3136;48.788;9.772;2023-09-30T15:25:02;20.90;1.00
6206;DHT22;3136;48.788;9.772;2023-09-30T15:27:29;20.50;1.00
6206;DHT22;3136;48.788;9.772;2023-09-30T15:29:55;20.50;1.00
6206;DHT22;3136;48.788;9.772;2023-09-30T15:32:20;20.40;1.00
6206;DHT22;3136;48.788;9.772;2023-09-30T15:34:47;20.30;1.00
6206;DHT22;3136;48.788;9.772;2023-09-30T15:37:13;20.30;1.00
6206;DHT22;3136;48.788;9.772;2023-09-30T15:39:40;20.00;1.00
6206;DHT22;3136;48.788;9.772;2023-09-30T15:42:07;20.00;1.00
6206;DHT22;3136;48.788;9.772;2023-09-30T15:44:34;19.90;1.00
6206;DHT22;3136;48.788;9.772;2023-09-30T15:47:00;19.80;1.00
6206;DHT22;3136;48.788;9.772;2023-09-30T15:49:26;19.70;1.00
6206;DHT22;3136;48.788;9.772;2023-09-30T15:51:52;19.60;1.00
6206;DHT22;3136;48.788;9.772;2023-09-30T15:54:18;19.40;1.00
6206;DHT22;3136;48.788;9.772;2023-09-30T15:56:44;19.30;1.00
6206;DHT22;3136;48.788;9.772;2023-09-30T15:59:10;19.10;1.00
6206;DHT22;3136;48.788;9.772;2023-09-30T16:01:35;19.00;3.80
6206;DHT22;3136;48.788;9.772;2023-09-30T16:04:01;18.90;2.90
6206;DHT22;3136;48.788;9.772;2023-09-30T16:06:27;18.80;7.90
6206;DHT22;3136;48.788;9.772;2023-09-30T16:08:52;18.60;8.10
6206;DHT22;3136;48.788;9.772;2023-09-30T16:11:25;18.50;14.00
6206;DHT22;3136;48.788;9.772;2023-09-30T16:13:51;18.50;19.20
6206;DHT22;3136;48.788;9.772;2023-09-30T16:16:17;18.40;27.10
6206;DHT22;3136;48.788;9.772;2023-09-30T16:18:43;18.20;76.10
6206;DHT22;3136;48.788;9.772;2023-09-30T16:21:08;18.20;99.90
6206;DHT22;3136;48.788;9.772;2023-09-30T16:23:34;18.10;99.90
6206;DHT22;3136;48.788;9.772;2023-09-30T16:26:00;18.00;99.90
6206;DHT22;3136;48.788;9.772;2023-09-30T16:28:25;17.70;99.90
6206;DHT22;3136;48.788;9.772;2023-09-30T16:30:51;17.60;99.90
6206;DHT22;3136;48.788;9.772;2023-09-30T16:33:17;17.50;99.90
6206;DHT22;3136;48.788;9.772;2023-09-30T16:35:53;17.30;99.90
6206;DHT22;3136;48.788;9.772;2023-09-30T16:38:23;17.20;99.90
6206;DHT22;3136;48.788;9.772;2023-09-30T16:40:50;17.10;1.00